sensor_id;sensor_type;location;lat;lon;timestamp;P1;durP1;ratioP1;P2;durP2;ratioP2
65230;SDS011;51813;40.666;16.602;2022-07-29T14:30:02;7.50;;;4.25;;
65230;SDS011;51813;40.666;16.602;2022-07-29T14:32:28;5.05;;;4.10;;
65230;SDS011;51813;40.666;16.602;2022-07-29T14:34:54;8.32;;;4.32;;
65230;SDS011;51813;40.666;16.602;2022-07-29T14:37:19;8.88;;;4.80;;
65230;SDS011;51813;40.666;16.602;2022-07-29T14:39:45;10.38;;;4.53;;
65230;SDS011;51813;40.666;16.602;2022-07-29T14:42:11;8.93;;;4.43;;
65230;SDS011;51813;40.666;16.602;2022-07-29T14:44:38;6.45;;;4.70;;
65230;SDS011;51813;40.666;16.602;2022-07-29T14:47:06;6.03;;;4.50;;
65230;SDS011;51813;40.666;16.602;2022-07-29T14:49:32;6.78;;;4.57;;
65230;SDS011;51813;40.666;16.602;2022-07-29T14:51:58;7.57;;;4.97;;
65230;SDS011;51813;40.666;16.602;2022-07-29T14:54:23;5.43;;;4.50;;
65230;SDS011;51813;40.666;16.602;2022-07-29T14:56:49;7.35;;;4.88;;
65230;SDS011;51813;40.666;16.602;2022-07-29T14:59:15;6.22;;;4.80;;
65230;SDS011;51813;40.666;16.602;2022-07-29T15:01:41;5.88;;;4.80;;
65230;SDS011;51813;40.666;16.602;2022-07-29T15:04:07;5.70;;;4.93;;
65230;SDS011;51813;40.666;16.602;2022-07-29T15:06:33;6.70;;;4.95;;
65230;SDS011;51813;40.666;16.602;2022-07-29T15:08:59;7.90;;;5.18;;
65230;SDS011;51813;40.666;16.602;2022-07-29T15:11:25;7.30;;;4.93;;
65230;SDS011;51813;40.666;16.602;2022-07-29T15:13:50;7.35;;;4.88;;
65230;SDS011;51813;40.666;16.602;2022-07-29T15:16:16;7.47;;;5.13;;
65230;SDS011;51813;40.666;16.602;2022-07-29T15:18:42;6.88;;;5.20;;
65230;SDS011;51813;40.666;16.602;2022-07-29T15:21:07;5.88;;;4.80;;
65230;SDS011;51813;40.666;16.602;2022-07-29T15:23:33;6.18;;;4.88;;
65230;SDS011;51813;40.666;16.602;2022-07-29T15:26:03;6.28;;;4.90;;
65230;SDS011;51813;40.666;16.602;2022-07-29T15:28:29;7.65;;;4.68;;
65230;SDS011;51813;40.666;16.602;2022-07-29T15:30:55;5.82;;;4.60;;
65230;SDS011;51813;40.666;16.602;2022-07-29T15:33:21;7.22;;;5.20;;
65230;SDS011;51813;40.666;16.602;2022-07-29T15:35:47;9.20;;;4.72;;
65230;SDS011;51813;40.666;16.602;2022-07-29T15:38:12;7.43;;;5.50;;
65230;SDS011;51813;40.666;16.602;2022-07-29T15:40:38;8.18;;;4.95;;
65230;SDS011;51813;40.666;16.602;2022-07-29T15:43:06;8.55;;;5.38;;
65230;SDS011;51813;40.666;16.602;2022-07-29T15:45:38;6.78;;;4.93;;
65230;SDS011;51813;40.666;16.602;2022-07-29T15:48:06;7.57;;;5.22;;
65230;SDS011;51813;40.666;16.602;2022-07-29T15:50:33;9.63;;;5.93;;
65230;SDS011;51813;40.666;16.602;2022-07-29T15:52:59;6.95;;;5.30;;
65230;SDS011;51813;40.666;16.602;2022-07-29T15:55:26;6.03;;;4.85;;
65230;SDS011;51813;40.666;16.602;2022-07-29T15:57:51;6.13;;;4.68;;
65230;SDS011;51813;40.666;16.602;2022-07-29T16:00:17;7.65;;;4.95;;
65230;SDS011;51813;40.666;16.602;2022-07-29T16:02:43;7.72;;;5.15;;
65230;SDS011;51813;40.666;16.602;2022-07-29T16:05:09;7.32;;;5.10;;
65230;SDS011;51813;40.666;16.602;2022-07-29T16:07:35;6.82;;;4.72;;
65230;SDS011;51813;40.666;16.602;2022-07-29T16:10:02;6.13;;;4.72;;
65230;SDS011;51813;40.666;16.602;2022-07-29T16:12:28;7.38;;;5.25;;
65230;SDS011;51813;40.666;16.602;2022-07-29T16:14:53;6.93;;;5.00;;
65230;SDS011;51813;40.666;16.602;2022-07-29T16:17:19;6.47;;;5.18;;
65230;SDS011;51813;40.666;16.602;2022-07-29T16:19:45;5.65;;;4.72;;
65230;SDS011;51813;40.666;16.602;2022-07-29T16:22:11;5.53;;;4.70;;
65230;SDS011;51813;40.666;16.602;2022-07-29T16:24:36;5.25;;;4.55;;
65230;SDS011;51813;40.666;16.602;2022-07-29T16:27:03;5.97;;;4.80;;
65230;SDS011;51813;40.666;16.602;2022-07-29T16:29:29;6.35;;;4.60;;
65230;SDS011;51813;40.666;16.602;2022-07-29T16:31:55;5.95;;;4.65;;
65230;SDS011;51813;40.666;16.602;2022-07-29T16:34:20;5.47;;;4.50;;
65230;SDS011;51813;40.666;16.602;2022-07-29T16:36:46;5.32;;;4.53;;
65230;SDS011;51813;40.666;16.602;2022-07-29T16:39:12;7.13;;;4.70;;
65230;SDS011;51813;40.666;16.602;2022-07-29T16:41:37;5.40;;;4.65;;
65230;SDS011;51813;40.666;16.602;2022-07-29T16:44:03;5.85;;;4.75;;
65230;SDS011;51813;40.666;16.602;2022-07-29T16:46:29;5.22;;;4.47;;
65230;SDS011;51813;40.666;16.602;2022-07-29T16:48:55;6.57;;;5.13;;
65230;SDS011;51813;40.666;16.602;2022-07-29T16:51:20;5.70;;;4.45;;
65230;SDS011;51813;40.666;16.602;2022-07-29T16:53:46;5.40;;;4.80;;
65230;SDS011;51813;40.666;16.602;2022-07-29T16:56:12;5.85;;;4.30;;
65230;SDS011;51813;40.666;16.602;2022-07-29T16:58:38;5.57;;;4.38;;
65230;SDS011;51813;40.666;16.602;2022-07-29T17:01:04;6.03;;;4.68;;
65230;SDS011;51813;40.666;16.602;2022-07-29T17:03:30;8.38;;;5.10;;
65230;SDS011;51813;40.666;16.602;2022-07-29T17:05:56;6.40;;;4.45;;
65230;SDS011;51813;40.666;16.602;2022-07-29T17:08:22;7.15;;;4.88;;
65230;SDS011;51813;40.666;16.602;2022-07-29T17:10:47;9.45;;;5.30;;
65230;SDS011;51813;40.666;16.602;2022-07-29T17:13:13;7.70;;;4.97;;
65230;SDS011;51813;40.666;16.602;2022-07-29T17:15:39;7.10;;;4.78;;
65230;SDS011;51813;40.666;16.602;2022-07-29T17:18:06;5.65;;;4.90;;
65230;SDS011;51813;40.666;16.602;2022-07-29T17:20:32;5.82;;;5.00;;
65230;SDS011;51813;40.666;16.602;2022-07-29T17:23:00;6.55;;;4.93;;
65230;SDS011;51813;40.666;16.602;2022-07-29T17:25:26;7.63;;;4.80;;
65230;SDS011;51813;40.666;16.602;2022-07-29T17:27:52;6.70;;;5.03;;
65230;SDS011;51813;40.666;16.602;2022-07-29T17:30:19;9.23;;;5.00;;
65230;SDS011;51813;40.666;16.602;2022-07-29T17:32:45;7.70;;;4.95;;
65230;SDS011;51813;40.666;16.602;2022-07-29T17:35:11;8.30;;;5.10;;
65230;SDS011;51813;40.666;16.602;2022-07-29T17:37:56;8.07;;;5.32;;
65230;SDS011;51813;40.666;16.602;2022-07-29T17:40:22;7.25;;;5.18;;
65230;SDS011;51813;40.666;16.602;2022-07-29T17:42:48;7.50;;;5.10;;
65230;SDS011;51813;40.666;16.602;2022-07-29T17:45:13;7.30;;;5.20;;
65230;SDS011;51813;40.666;16.602;2022-07-29T17:47:39;7.10;;;4.97;;
65230;SDS011;51813;40.666;16.602;2022-07-29T17:50:05;6.90;;;5.30;;
65230;SDS011;51813;40.666;16.602;2022-07-29T17:52:32;7.65;;;5.05;;
65230;SDS011;51813;40.666;16.602;2022-07-29T17:54:58;7.07;;;5.10;;
65230;SDS011;51813;40.666;16.602;2022-07-29T17:57:23;8.82;;;5.35;;
65230;SDS011;51813;40.666;16.602;2022-07-29T17:59:49;6.05;;;5.15;;
65230;SDS011;51813;40.666;16.602;2022-07-29T18:02:15;7.65;;;5.22;;
65230;SDS011;51813;40.666;16.602;2022-07-29T18:04:41;7.50;;;5.35;;
65230;SDS011;51813;40.666;16.602;2022-07-29T18:07:07;6.05;;;4.97;;
65230;SDS011;51813;40.666;16.602;2022-07-29T18:09:33;8.48;;;5.30;;
65230;SDS011;51813;40.666;16.602;2022-07-29T18:11:58;7.10;;;5.28;;
65230;SDS011;51813;40.666;16.602;2022-07-29T18:14:24;6.38;;;4.88;;
65230;SDS011;51813;40.666;16.602;2022-07-29T18:16:50;7.40;;;5.38;;
65230;SDS011;51813;40.666;16.602;2022-07-29T18:19:15;7.68;;;5.28;;
65230;SDS011;51813;40.666;16.602;2022-07-29T18:21:41;6.10;;;5.15;;
65230;SDS011;51813;40.666;16.602;2022-07-29T18:24:07;9.13;;;5.25;;
65230;SDS011;51813;40.666;16.602;2022-07-29T18:26:33;7.53;;;5.57;;
65230;SDS011;51813;40.666;16.602;2022-07-29T18:28:59;9.20;;;5.28;;
65230;SDS011;51813;40.666;16.602;2022-07-29T18:31:24;8.05;;;5.30;;
65230;SDS011;51813;40.666;16.602;2022-07-29T18:33:50;7.15;;;5.22;;
65230;SDS011;51813;40.666;16.602;2022-07-29T18:36:16;8.27;;;6.22;;
65230;SDS011;51813;40.666;16.602;2022-07-29T18:38:42;11.02;;;7.18;;
65230;SDS011;51813;40.666;16.602;2022-07-29T18:41:07;7.05;;;5.25;;
65230;SDS011;51813;40.666;16.602;2022-07-29T18:43:33;8.75;;;5.80;;
65230;SDS011;51813;40.666;16.602;2022-07-29T18:45:59;8.50;;;5.88;;
65230;SDS011;51813;40.666;16.602;2022-07-29T18:48:25;8.45;;;5.60;;
65230;SDS011;51813;40.666;16.602;2022-07-29T18:50:50;8.35;;;5.75;;
65230;SDS011;51813;40.666;16.602;2022-07-29T18:53:16;7.13;;;5.63;;
65230;SDS011;51813;40.666;16.602;2022-07-29T18:55:42;7.90;;;5.53;;
65230;SDS011;51813;40.666;16.602;2022-07-29T18:58:08;7.32;;;5.35;;
65230;SDS011;51813;40.666;16.602;2022-07-29T19:00:34;7.28;;;5.40;;
65230;SDS011;51813;40.666;16.602;2022-07-29T19:02:59;6.80;;;5.53;;
65230;SDS011;51813;40.666;16.602;2022-07-29T19:05:27;7.03;;;5.15;;
65230;SDS011;51813;40.666;16.602;2022-07-29T19:07:52;6.22;;;5.03;;
65230;SDS011;51813;40.666;16.602;2022-07-29T19:10:20;7.13;;;5.40;;
65230;SDS011;51813;40.666;16.602;2022-07-29T19:12:46;7.22;;;5.10;;
65230;SDS011;51813;40.666;16.602;2022-07-29T19:15:11;5.70;;;4.97;;
65230;SDS011;51813;40.666;16.602;2022-07-29T19:17:37;7.95;;;5.45;;
65230;SDS011;51813;40.666;16.602;2022-07-29T19:20:03;7.18;;;5.75;;
65230;SDS011;51813;40.666;16.602;2022-07-29T19:22:30;7.32;;;5.32;;
65230;SDS011;51813;40.666;16.602;2022-07-29T19:24:57;7.35;;;5.05;;
65230;SDS011;51813;40.666;16.602;2022-07-29T19:27:22;7.13;;;5.30;;
65230;SDS011;51813;40.666;16.602;2022-07-29T19:29:49;6.50;;;5.20;;
65230;SDS011;51813;40.666;16.602;2022-07-29T19:32:15;7.28;;;5.35;;
65230;SDS011;51813;40.666;16.602;2022-07-29T19:34:41;7.18;;;5.20;;
65230;SDS011;51813;40.666;16.602;2022-07-29T19:37:27;7.97;;;5.50;;
65230;SDS011;51813;40.666;16.602;2022-07-29T19:39:52;7.30;;;5.18;;
65230;SDS011;51813;40.666;16.602;2022-07-29T19:42:18;6.22;;;5.00;;
65230;SDS011;51813;40.666;16.602;2022-07-29T19:44:43;7.40;;;5.13;;
65230;SDS011;51813;40.666;16.602;2022-07-29T19:47:09;6.45;;;5.20;;
65230;SDS011;51813;40.666;16.602;2022-07-29T19:49:35;8.20;;;4.90;;
65230;SDS011;51813;40.666;16.602;2022-07-29T19:52:03;5.90;;;5.10;;
65230;SDS011;51813;40.666;16.602;2022-07-29T19:54:29;7.50;;;5.03;;
65230;SDS011;51813;40.666;16.602;2022-07-29T19:56:55;8.95;;;5.25;;
65230;SDS011;51813;40.666;16.602;2022-07-29T19:59:20;6.68;;;5.13;;
65230;SDS011;51813;40.666;16.602;2022-07-29T20:01:46;6.10;;;5.10;;
65230;SDS011;51813;40.666;16.602;2022-07-29T20:04:12;6.47;;;4.60;;
65230;SDS011;51813;40.666;16.602;2022-07-29T20:06:37;6.72;;;4.88;;
65230;SDS011;51813;40.666;16.602;2022-07-29T20:09:03;7.25;;;4.95;;
65230;SDS011;51813;40.666;16.602;2022-07-29T20:11:30;5.70;;;4.88;;
65230;SDS011;51813;40.666;16.602;2022-07-29T20:14:00;6.63;;;5.22;;
65230;SDS011;51813;40.666;16.602;2022-07-29T20:16:29;6.72;;;5.38;;
65230;SDS011;51813;40.666;16.602;2022-07-29T20:18:55;6.07;;;5.28;;
65230;SDS011;51813;40.666;16.602;2022-07-29T20:21:21;5.38;;;4.60;;
65230;SDS011;51813;40.666;16.602;2022-07-29T20:23:46;6.07;;;4.93;;
65230;SDS011;51813;40.666;16.602;2022-07-29T20:26:12;8.00;;;5.28;;
65230;SDS011;51813;40.666;16.602;2022-07-29T20:28:38;6.97;;;5.50;;
65230;SDS011;51813;40.666;16.602;2022-07-29T20:31:04;6.65;;;5.20;;
65230;SDS011;51813;40.666;16.602;2022-07-29T20:33:30;6.50;;;5.13;;
65230;SDS011;51813;40.666;16.602;2022-07-29T20:35:55;5.95;;;4.97;;
65230;SDS011;51813;40.666;16.602;2022-07-29T20:38:21;7.72;;;5.40;;
65230;SDS011;51813;40.666;16.602;2022-07-29T20:40:47;6.53;;;5.35;;
65230;SDS011;51813;40.666;16.602;2022-07-29T20:43:14;6.03;;;4.70;;
65230;SDS011;51813;40.666;16.602;2022-07-29T20:45:40;6.63;;;5.10;;
65230;SDS011;51813;40.666;16.602;2022-07-29T20:48:06;6.18;;;4.70;;
65230;SDS011;51813;40.666;16.602;2022-07-29T20:50:31;6.18;;;5.20;;
65230;SDS011;51813;40.666;16.602;2022-07-29T20:52:57;6.57;;;5.00;;
65230;SDS011;51813;40.666;16.602;2022-07-29T20:55:23;6.68;;;4.97;;
65230;SDS011;51813;40.666;16.602;2022-07-29T20:57:49;6.07;;;4.82;;
65230;SDS011;51813;40.666;16.602;2022-07-29T21:00:14;7.60;;;5.07;;
65230;SDS011;51813;40.666;16.602;2022-07-29T21:02:40;6.53;;;4.90;;
65230;SDS011;51813;40.666;16.602;2022-07-29T21:05:06;5.75;;;4.82;;
65230;SDS011;51813;40.666;16.602;2022-07-29T21:07:32;5.45;;;4.70;;
65230;SDS011;51813;40.666;16.602;2022-07-29T21:09:58;7.22;;;5.20;;
65230;SDS011;51813;40.666;16.602;2022-07-29T21:12:23;6.50;;;4.97;;
65230;SDS011;51813;40.666;16.602;2022-07-29T21:14:49;5.93;;;4.95;;
65230;SDS011;51813;40.666;16.602;2022-07-29T21:17:16;5.90;;;4.70;;
65230;SDS011;51813;40.666;16.602;2022-07-29T21:19:44;5.85;;;4.70;;
65230;SDS011;51813;40.666;16.602;2022-07-29T21:22:11;6.10;;;4.90;;
65230;SDS011;51813;40.666;16.602;2022-07-29T21:24:36;8.10;;;5.25;;
65230;SDS011;51813;40.666;16.602;2022-07-29T21:27:02;7.28;;;5.03;;
65230;SDS011;51813;40.666;16.602;2022-07-29T21:29:47;7.78;;;5.07;;
65230;SDS011;51813;40.666;16.602;2022-07-29T21:32:12;8.57;;;5.43;;
65230;SDS011;51813;40.666;16.602;2022-07-29T21:34:38;7.18;;;5.32;;
65230;SDS011;51813;40.666;16.602;2022-07-29T21:37:04;7.15;;;5.20;;
65230;SDS011;51813;40.666;16.602;2022-07-29T21:39:29;7.45;;;4.97;;
65230;SDS011;51813;40.666;16.602;2022-07-29T21:41:55;6.65;;;5.00;;
65230;SDS011;51813;40.666;16.602;2022-07-29T21:44:21;7.68;;;5.50;;
65230;SDS011;51813;40.666;16.602;2022-07-29T21:46:47;7.40;;;5.00;;
65230;SDS011;51813;40.666;16.602;2022-07-29T21:49:13;7.13;;;4.85;;
65230;SDS011;51813;40.666;16.602;2022-07-29T21:51:39;6.95;;;5.03;;
65230;SDS011;51813;40.666;16.602;2022-07-29T21:54:04;7.05;;;4.85;;
65230;SDS011;51813;40.666;16.602;2022-07-29T21:56:30;5.82;;;4.65;;
65230;SDS011;51813;40.666;16.602;2022-07-29T21:58:56;6.22;;;4.93;;
65230;SDS011;51813;40.666;16.602;2022-07-29T22:01:22;7.28;;;4.82;;
65230;SDS011;51813;40.666;16.602;2022-07-29T22:03:48;7.47;;;6.07;;
65230;SDS011;51813;40.666;16.602;2022-07-29T22:06:14;7.93;;;6.10;;
65230;SDS011;51813;40.666;16.602;2022-07-29T22:08:40;6.25;;;5.60;;
65230;SDS011;51813;40.666;16.602;2022-07-29T22:11:09;6.78;;;5.43;;
65230;SDS011;51813;40.666;16.602;2022-07-29T22:13:35;8.32;;;5.32;;
65230;SDS011;51813;40.666;16.602;2022-07-29T22:16:00;6.85;;;5.13;;
65230;SDS011;51813;40.666;16.602;2022-07-29T22:18:26;10.07;;;5.53;;
65230;SDS011;51813;40.666;16.602;2022-07-29T22:20:52;5.93;;;5.15;;
65230;SDS011;51813;40.666;16.602;2022-07-29T22:23:18;5.88;;;5.25;;
65230;SDS011;51813;40.666;16.602;2022-07-29T22:25:43;5.43;;;4.90;;
65230;SDS011;51813;40.666;16.602;2022-07-29T22:28:09;6.18;;;5.22;;
65230;SDS011;51813;40.666;16.602;2022-07-29T22:30:35;6.20;;;4.65;;
65230;SDS011;51813;40.666;16.602;2022-07-29T22:33:01;8.07;;;4.68;;
65230;SDS011;51813;40.666;16.602;2022-07-29T22:35:27;6.53;;;4.63;;
65230;SDS011;51813;40.666;16.602;2022-07-29T22:37:52;7.03;;;4.78;;
65230;SDS011;51813;40.666;16.602;2022-07-29T22:40:18;6.75;;;5.00;;
65230;SDS011;51813;40.666;16.602;2022-07-29T22:42:44;5.93;;;5.00;;
65230;SDS011;51813;40.666;16.602;2022-07-29T22:45:09;7.47;;;4.88;;
65230;SDS011;51813;40.666;16.602;2022-07-29T22:47:35;6.80;;;4.85;;
65230;SDS011;51813;40.666;16.602;2022-07-29T22:50:01;6.35;;;4.45;;
65230;SDS011;51813;40.666;16.602;2022-07-29T22:52:27;5.07;;;4.55;;
65230;SDS011;51813;40.666;16.602;2022-07-29T22:54:53;6.50;;;4.60;;
65230;SDS011;51813;40.666;16.602;2022-07-29T22:57:19;5.43;;;4.80;;
65230;SDS011;51813;40.666;16.602;2022-07-29T22:59:44;5.40;;;4.85;;
65230;SDS011;51813;40.666;16.602;2022-07-29T23:02:10;6.50;;;4.75;;
65230;SDS011;51813;40.666;16.602;2022-07-29T23:04:36;7.22;;;5.30;;
65230;SDS011;51813;40.666;16.602;2022-07-29T23:07:02;6.43;;;5.10;;
65230;SDS011;51813;40.666;16.602;2022-07-29T23:09:27;7.82;;;4.80;;
65230;SDS011;51813;40.666;16.602;2022-07-29T23:11:53;5.90;;;4.70;;
65230;SDS011;51813;40.666;16.602;2022-07-29T23:14:19;5.47;;;4.90;;
65230;SDS011;51813;40.666;16.602;2022-07-29T23:16:45;6.22;;;4.47;;
65230;SDS011;51813;40.666;16.602;2022-07-29T23:19:10;6.10;;;4.75;;
65230;SDS011;51813;40.666;16.602;2022-07-29T23:21:36;5.43;;;4.55;;
65230;SDS011;51813;40.666;16.602;2022-07-29T23:24:02;6.93;;;4.32;;
65230;SDS011;51813;40.666;16.602;2022-07-29T23:26:28;5.35;;;4.40;;
65230;SDS011;51813;40.666;16.602;2022-07-29T23:28:54;5.45;;;4.47;;
65230;SDS011;51813;40.666;16.602;2022-07-29T23:31:19;6.50;;;4.35;;
65230;SDS011;51813;40.666;16.602;2022-07-29T23:33:45;6.88;;;4.70;;
65230;SDS011;51813;40.666;16.602;2022-07-29T23:36:11;5.25;;;4.32;;
65230;SDS011;51813;40.666;16.602;2022-07-29T23:38:40;5.50;;;4.75;;
65230;SDS011;51813;40.666;16.602;2022-07-29T23:41:06;6.45;;;4.80;;
65230;SDS011;51813;40.666;16.602;2022-07-29T23:43:34;5.72;;;4.63;;
65230;SDS011;51813;40.666;16.602;2022-07-29T23:46:00;6.32;;;4.80;;
65230;SDS011;51813;40.666;16.602;2022-07-29T23:48:26;6.40;;;5.15;;
65230;SDS011;51813;40.666;16.602;2022-07-29T23:50:52;7.18;;;4.80;;
65230;SDS011;51813;40.666;16.602;2022-07-29T23:53:17;6.65;;;4.63;;
65230;SDS011;51813;40.666;16.602;2022-07-29T23:55:43;7.30;;;4.55;;
65230;SDS011;51813;40.666;16.602;2022-07-29T23:58:09;5.75;;;4.75;;
